createdAt,value
2023-03-16T10:38:59.896Z,17.40
2023-03-16T10:41:32.636Z,17.38
2023-03-16T10:44:07.314Z,17.54
2023-03-16T10:46:44.070Z,17.56
2023-03-16T10:49:27.528Z,17.77
2023-03-16T10:51:57.965Z,17.96
2023-03-16T10:54:40.757Z,18.20
2023-03-16T10:57:26.118Z,18.42
2023-03-16T10:59:56.824Z,18.59
2023-03-16T11:02:31.973Z,18.61
2023-03-16T11:05:11.148Z,18.76
2023-03-16T11:07:38.730Z,18.92
2023-03-16T11:10:24.131Z,18.90
2023-03-16T11:12:51.077Z,18.88
2023-03-16T11:15:25.807Z,18.83
2023-03-16T11:17:56.257Z,18.80
2023-03-16T11:20:28.769Z,18.75
2023-03-16T11:22:56.274Z,18.69
2023-03-16T11:25:38.721Z,18.76
2023-03-16T11:28:32.274Z,18.77
2023-03-16T11:31:14.693Z,18.87
2023-03-16T11:33:41.555Z,18.92
2023-03-16T11:36:46.412Z,19.11
2023-03-16T11:39:32.065Z,18.93
2023-03-16T11:41:58.857Z,18.99
2023-03-16T11:44:34.603Z,18.87
2023-03-16T11:47:17.341Z,18.90
2023-03-16T11:49:56.870Z,19.07
2023-03-16T11:53:05.058Z,19.29
2023-03-16T11:55:34.622Z,19.21
2023-03-16T11:58:08.073Z,19.28
2023-03-16T12:00:46.050Z,19.49
2023-03-16T12:03:27.985Z,19.54
2023-03-16T12:06:23.963Z,19.57
2023-03-16T12:09:08.192Z,19.67
2023-03-16T12:11:46.609Z,19.78
2023-03-16T12:14:16.551Z,19.58
2023-03-16T12:16:51.573Z,19.67
2023-03-16T12:19:27.395Z,19.80
2023-03-16T12:22:23.718Z,19.84
2023-03-16T12:24:50.667Z,19.94
2023-03-16T12:27:34.673Z,19.94
2023-03-16T12:30:25.058Z,19.88
2023-03-16T12:33:13.799Z,20.00
2023-03-16T12:36:00.063Z,19.88
2023-03-16T12:38:32.900Z,19.79
2023-03-16T12:41:34.566Z,19.72
2023-03-16T12:44:21.105Z,19.93
2023-03-16T12:47:03.649Z,19.94
2023-03-16T12:49:36.942Z,19.64
2023-03-16T12:52:10.067Z,19.85
2023-03-16T12:54:49.205Z,19.78
2023-03-16T12:57:17.411Z,19.77
2023-03-16T12:59:53.006Z,19.60
2023-03-16T13:02:26.356Z,19.74
2023-03-16T13:04:59.517Z,19.80
2023-03-16T13:07:31.163Z,19.68
2023-03-16T13:10:03.793Z,19.56
2023-03-16T13:12:41.633Z,19.34
2023-03-16T13:15:13.164Z,19.54
2023-03-16T13:17:40.001Z,19.59
2023-03-16T13:20:20.903Z,19.52
2023-03-16T13:23:08.105Z,19.48
2023-03-16T13:25:42.861Z,19.51
2023-03-16T13:28:17.583Z,19.46
2023-03-16T13:30:49.106Z,19.36
2023-03-16T13:33:20.824Z,19.40
2023-03-16T13:35:52.471Z,19.38
2023-03-16T13:38:28.707Z,19.33
2023-03-16T13:41:04.805Z,19.31
2023-03-16T13:43:33.084Z,19.39
2023-03-16T13:46:00.026Z,19.42
2023-03-16T13:48:26.884Z,19.40
2023-03-16T13:50:58.896Z,19.43
2023-03-16T13:53:29.355Z,19.43
2023-03-16T13:55:58.233Z,19.32
2023-03-16T13:58:37.927Z,19.31
2023-03-16T14:01:24.891Z,19.34
2023-03-16T14:03:52.529Z,19.38
2023-03-16T14:06:34.202Z,19.33
2023-03-16T14:09:34.667Z,19.30
2023-03-16T14:12:02.454Z,19.26
2023-03-16T14:14:32.028Z,19.29
2023-03-16T14:17:12.375Z,19.21
2023-03-16T14:20:00.284Z,19.16
2023-03-16T14:22:34.849Z,19.26
2023-03-16T14:25:04.708Z,18.98
2023-03-16T14:27:43.049Z,18.89
2023-03-16T14:30:18.643Z,18.98
2023-03-16T14:33:20.740Z,19.03
2023-03-16T14:35:47.536Z,18.79
2023-03-16T14:38:32.160Z,18.97
2023-03-16T14:41:04.905Z,18.91
2023-03-16T14:43:35.918Z,18.92
2023-03-16T14:46:07.558Z,18.85
2023-03-16T14:48:35.935Z,18.81
2023-03-16T14:51:04.466Z,18.79
2023-03-16T14:53:31.886Z,18.77
2023-03-16T14:55:59.538Z,18.85
2023-03-16T14:58:26.721Z,18.89
2023-03-16T15:00:54.340Z,18.91
2023-03-16T15:03:30.349Z,18.89
2023-03-16T15:05:57.158Z,18.89
2023-03-16T15:08:27.298Z,18.91
2023-03-16T15:11:04.956Z,18.92
2023-03-16T15:13:37.069Z,18.89
2023-03-16T15:16:05.644Z,18.72
2023-03-16T15:18:33.544Z,18.74
2023-03-16T15:21:02.224Z,18.74
2023-03-16T15:23:30.922Z,18.74
2023-03-16T15:26:02.986Z,18.73
2023-03-16T15:28:29.767Z,18.61
2023-03-16T15:31:02.389Z,18.73
2023-03-16T15:33:29.900Z,18.68
2023-03-16T15:35:59.430Z,18.78
2023-03-16T15:38:33.476Z,18.80
2023-03-16T15:41:00.580Z,18.84
2023-03-16T15:43:29.855Z,18.84
2023-03-16T15:45:59.270Z,18.78
2023-03-16T15:48:26.258Z,18.85
2023-03-16T15:50:57.404Z,18.92
2023-03-16T15:53:38.322Z,18.92
2023-03-16T15:56:09.469Z,18.96
2023-03-16T15:58:38.106Z,18.98
2023-03-16T16:01:07.645Z,19.00
2023-03-16T16:03:34.653Z,18.93
2023-03-16T16:06:02.095Z,18.88
2023-03-16T16:08:28.995Z,18.92
2023-03-16T16:10:56.481Z,18.96
2023-03-16T16:13:43.121Z,18.94
2023-03-16T16:16:16.276Z,18.92
2023-03-16T16:18:43.844Z,18.99
2023-03-16T16:21:29.109Z,18.94
2023-03-16T16:23:56.034Z,19.02
2023-03-16T16:26:34.307Z,19.02
2023-03-16T16:29:18.011Z,19.08
2023-03-16T16:31:45.312Z,18.97
2023-03-16T16:34:14.423Z,18.79
2023-03-16T16:36:41.522Z,18.70
2023-03-16T16:39:09.338Z,18.86
2023-03-16T16:41:37.782Z,18.88
2023-03-16T16:44:08.397Z,18.80
2023-03-16T16:46:40.638Z,18.87
2023-03-16T16:49:13.082Z,18.92
2023-03-16T16:51:39.928Z,18.79
2023-03-16T16:54:18.578Z,18.76
2023-03-16T16:56:46.546Z,18.83
2023-03-16T16:59:19.281Z,18.86
2023-03-16T17:01:47.956Z,18.87
2023-03-16T17:04:25.487Z,18.81
2023-03-16T17:06:55.672Z,18.71
2023-03-16T17:09:23.782Z,18.66
2023-03-16T17:11:56.081Z,18.54
2023-03-16T17:14:24.051Z,18.43
2023-03-16T17:16:51.865Z,18.21
2023-03-16T17:19:23.281Z,18.11
2023-03-16T17:21:55.629Z,18.09
2023-03-16T17:24:23.393Z,17.93
2023-03-16T17:26:57.540Z,17.72
2023-03-16T17:29:31.687Z,17.65
2023-03-16T17:32:07.281Z,17.60
2023-03-16T17:34:34.423Z,17.55
2023-03-16T17:37:02.240Z,17.44
2023-03-16T17:39:32.199Z,17.39
2023-03-16T17:42:02.088Z,17.13
2023-03-16T17:44:34.550Z,17.14
2023-03-16T17:47:01.651Z,17.08
2023-03-16T17:49:30.625Z,17.01
2023-03-16T17:51:57.600Z,17.00
2023-03-16T17:54:24.440Z,16.87
2023-03-16T17:56:53.899Z,16.83
2023-03-16T17:59:23.007Z,16.90
2023-03-16T18:01:50.438Z,16.61
2023-03-16T18:04:21.585Z,16.68
2023-03-16T18:06:49.170Z,16.61
2023-03-16T18:09:20.272Z,16.66
2023-03-16T18:11:50.031Z,16.51
2023-03-16T18:14:36.782Z,16.48
2023-03-16T18:17:15.912Z,16.49
2023-03-16T18:19:44.007Z,16.51
2023-03-16T18:22:19.324Z,16.54
2023-03-16T18:24:50.047Z,16.40
2023-03-16T18:27:17.178Z,16.45
2023-03-16T18:29:45.959Z,16.37
2023-03-16T18:32:23.219Z,16.35
2023-03-16T18:34:52.961Z,16.37
2023-03-16T18:37:24.173Z,16.39
2023-03-16T18:39:52.915Z,16.38
2023-03-16T18:42:24.029Z,16.30
2023-03-16T18:44:51.148Z,16.30
2023-03-16T18:47:22.091Z,16.34
2023-03-16T18:49:52.974Z,16.37
2023-03-16T18:52:22.422Z,16.36
2023-03-16T18:54:50.206Z,16.39
2023-03-16T18:57:21.368Z,16.38
2023-03-16T18:59:48.935Z,16.40
2023-03-16T19:02:42.151Z,16.37
2023-03-16T19:05:16.699Z,16.30
2023-03-16T19:07:47.179Z,16.15
2023-03-16T19:10:24.729Z,16.22
2023-03-16T19:12:52.594Z,16.22
2023-03-16T19:15:21.211Z,16.20
2023-03-16T19:17:48.543Z,16.25
2023-03-16T19:20:18.348Z,16.25
2023-03-16T19:22:48.934Z,16.16
2023-03-16T19:25:25.771Z,16.19
2023-03-16T19:27:53.885Z,16.20
2023-03-16T19:30:27.477Z,16.18
2023-03-16T19:32:58.114Z,16.19
2023-03-16T19:35:44.349Z,16.18
2023-03-16T19:38:14.526Z,16.15
2023-03-16T19:40:42.458Z,16.14
2023-03-16T19:43:18.388Z,16.16
2023-03-16T19:45:46.888Z,16.14
2023-03-16T19:48:20.322Z,16.08
2023-03-16T19:50:49.343Z,16.04
2023-03-16T19:53:24.103Z,16.03
2023-03-16T19:55:53.301Z,16.03
2023-03-16T19:58:31.381Z,16.03
2023-03-16T20:00:59.035Z,16.05
2023-03-16T20:03:26.177Z,16.05
2023-03-16T20:05:53.546Z,16.06
2023-03-16T20:08:24.348Z,16.06
2023-03-16T20:10:52.425Z,16.00
2023-03-16T20:13:20.055Z,15.96
2023-03-16T20:15:47.530Z,15.94
2023-03-16T20:18:17.260Z,15.97
2023-03-16T20:20:44.870Z,16.00
2023-03-16T20:23:25.758Z,16.02
2023-03-16T20:25:56.443Z,16.02
2023-03-16T20:28:27.817Z,15.95
2023-03-16T20:30:54.604Z,15.89
2023-03-16T20:33:24.287Z,15.91
2023-03-16T20:35:55.477Z,15.92
2023-03-16T20:38:23.490Z,15.95
2023-03-16T20:40:54.672Z,15.98
2023-03-16T20:43:31.469Z,16.00
2023-03-16T20:46:01.369Z,15.90
2023-03-16T20:48:29.367Z,15.95
2023-03-16T20:51:00.618Z,15.98
2023-03-16T20:53:27.671Z,15.99
2023-03-16T20:55:55.163Z,15.98
2023-03-16T20:58:27.995Z,15.99
2023-03-16T21:00:58.397Z,15.98
2023-03-16T21:03:28.374Z,15.98
2023-03-16T21:05:59.581Z,15.85
2023-03-16T21:08:27.188Z,15.91
2023-03-16T21:10:56.773Z,15.94
2023-03-16T21:13:33.264Z,15.98
2023-03-16T21:16:03.264Z,15.92
2023-03-16T21:18:30.884Z,15.93
2023-03-16T21:20:58.873Z,15.95
2023-03-16T21:23:25.804Z,15.98
2023-03-16T21:25:59.723Z,15.98
2023-03-16T21:28:28.881Z,15.91
2023-03-16T21:30:57.786Z,15.98
2023-03-16T21:33:33.654Z,15.96
2023-03-16T21:36:02.136Z,15.94
2023-03-16T21:38:31.016Z,16.00
2023-03-16T21:40:59.693Z,16.00
2023-03-16T21:43:27.452Z,16.04
2023-03-16T21:45:55.161Z,16.07
2023-03-16T21:48:44.772Z,16.12
2023-03-16T21:51:28.986Z,16.15
2023-03-16T21:53:56.310Z,16.15
2023-03-16T21:56:26.041Z,16.18
2023-03-16T21:58:54.206Z,16.19
2023-03-16T22:01:23.246Z,16.11
2023-03-16T22:03:53.328Z,16.00
2023-03-16T22:06:22.727Z,15.97
2023-03-16T22:08:51.220Z,16.03
2023-03-16T22:11:24.744Z,15.99
2023-03-16T22:13:51.972Z,15.97
2023-03-16T22:16:23.171Z,15.98
2023-03-16T22:18:52.921Z,16.03
2023-03-16T22:21:36.519Z,16.04
2023-03-16T22:24:07.217Z,16.08
2023-03-16T22:26:34.064Z,16.09
2023-03-16T22:29:01.961Z,16.11
2023-03-16T22:31:34.863Z,16.11
2023-03-16T22:34:04.675Z,16.11
2023-03-16T22:36:33.215Z,16.09
2023-03-16T22:39:03.216Z,16.11
2023-03-16T22:41:30.461Z,16.14
2023-03-16T22:43:58.178Z,16.16
2023-03-16T22:46:27.328Z,16.12
2023-03-16T22:48:55.469Z,16.09
2023-03-16T22:51:37.943Z,16.11
2023-03-16T22:54:12.586Z,16.12
2023-03-16T22:56:41.771Z,16.09
2023-03-16T22:59:13.520Z,16.10
2023-03-16T23:01:43.789Z,16.14
2023-03-16T23:04:22.417Z,16.17
2023-03-16T23:06:52.575Z,16.19
2023-03-16T23:09:20.563Z,16.19
2023-03-16T23:11:49.397Z,16.22
2023-03-16T23:14:20.014Z,16.10
2023-03-16T23:16:48.313Z,16.02
2023-03-16T23:19:25.131Z,16.05
2023-03-16T23:21:54.679Z,15.94
2023-03-16T23:24:22.285Z,15.95
2023-03-16T23:26:50.705Z,15.98
2023-03-16T23:29:17.576Z,16.01
2023-03-16T23:31:44.511Z,16.04
2023-03-16T23:34:13.629Z,16.03
2023-03-16T23:36:41.061Z,15.98
2023-03-16T23:39:09.108Z,15.87
2023-03-16T23:41:37.282Z,15.91
2023-03-16T23:44:06.705Z,15.94
2023-03-16T23:46:34.602Z,15.88
2023-03-16T23:49:05.590Z,15.89
2023-03-16T23:51:37.062Z,15.87
2023-03-16T23:54:17.666Z,15.90
2023-03-16T23:56:44.382Z,15.85
2023-03-16T23:59:11.234Z,15.90
